createdAt,value
2023-03-04T07:18:47.746Z,35.38
2023-03-04T07:21:17.417Z,42.72
2023-03-04T07:23:45.291Z,38.83
2023-03-04T07:26:13.127Z,36.65
2023-03-04T07:28:42.766Z,36.38
2023-03-04T07:31:32.128Z,40.55
2023-03-04T07:34:06.758Z,37.40
2023-03-04T07:36:37.005Z,39.80
2023-03-04T07:39:05.855Z,41.85
2023-03-04T07:41:36.305Z,41.17
2023-03-04T07:44:07.040Z,36.90
2023-03-04T07:46:34.858Z,42.78
2023-03-04T07:49:02.209Z,42.63
2023-03-04T07:51:29.745Z,42.72
2023-03-04T07:54:01.048Z,42.67
2023-03-04T07:56:33.957Z,43.25
2023-03-04T07:59:02.215Z,39.38
2023-03-04T08:01:37.913Z,39.50
2023-03-04T08:04:07.983Z,41.58
2023-03-04T08:06:35.984Z,38.47
2023-03-04T08:09:07.708Z,45.20
2023-03-04T08:11:38.434Z,42.85
2023-03-04T08:14:06.321Z,41.20
2023-03-04T08:16:33.768Z,43.65
2023-03-04T08:19:04.180Z,41.35
2023-03-04T08:24:07.863Z,41.90
2023-03-04T08:26:46.757Z,43.55
2023-03-04T08:29:24.767Z,41.00
2023-03-04T08:31:54.396Z,41.97
2023-03-04T08:34:27.407Z,45.53
2023-03-04T08:36:55.034Z,39.88
2023-03-04T08:39:22.476Z,43.63
2023-03-04T08:41:50.308Z,39.88
2023-03-04T08:44:17.676Z,47.30
2023-03-04T08:46:45.011Z,39.47
2023-03-04T08:49:14.445Z,41.40
2023-03-04T08:51:41.829Z,43.22
2023-03-04T08:54:09.149Z,44.08
2023-03-04T08:56:36.450Z,39.00
2023-03-04T08:59:04.109Z,39.25
2023-03-04T09:01:31.517Z,43.08
2023-03-04T09:03:58.916Z,42.83
2023-03-04T09:06:26.290Z,40.85
2023-03-04T09:08:53.623Z,39.95
2023-03-04T09:11:21.024Z,40.20
2023-03-04T09:13:48.447Z,39.35
2023-03-04T09:16:16.876Z,39.42
2023-03-04T09:18:44.367Z,42.13
2023-03-04T09:21:12.210Z,43.97
2023-03-04T09:23:40.973Z,45.38
2023-03-04T09:26:26.858Z,42.65
2023-03-04T09:28:59.636Z,41.92
2023-03-04T09:31:30.078Z,45.15
2023-03-04T09:33:59.484Z,42.70
2023-03-04T09:36:26.853Z,39.28
2023-03-04T09:38:54.198Z,43.60
2023-03-04T09:41:37.619Z,50.22
2023-03-04T09:44:43.218Z,46.38
2023-03-04T09:47:17.612Z,45.92
2023-03-04T09:50:01.267Z,39.45
2023-03-04T09:53:21.303Z,49.22
2023-03-04T09:55:53.000Z,44.30
2023-03-04T09:59:00.207Z,46.35
2023-03-04T10:01:42.617Z,46.72
2023-03-04T10:04:50.964Z,46.17
2023-03-04T10:07:33.416Z,50.10
2023-03-04T10:10:10.642Z,46.20
2023-03-04T10:12:42.814Z,53.92
2023-03-04T10:15:46.202Z,46.78
2023-03-04T10:18:48.370Z,47.45
2023-03-04T10:21:36.261Z,49.95
2023-03-04T10:24:18.789Z,51.08
2023-03-04T10:27:01.531Z,46.10
2023-03-04T10:29:32.637Z,48.38
2023-03-04T10:32:00.484Z,47.47
2023-03-04T10:34:28.169Z,49.63
2023-03-04T10:37:07.536Z,45.15
2023-03-04T10:39:46.291Z,47.47
2023-03-04T10:42:16.477Z,47.25
2023-03-04T10:45:01.072Z,42.33
2023-03-04T10:47:33.548Z,42.53
2023-03-04T10:50:05.650Z,46.33
2023-03-04T10:52:49.969Z,44.53
2023-03-04T10:55:28.410Z,46.40
2023-03-04T10:58:13.521Z,46.95
2023-03-04T11:00:41.247Z,42.47
2023-03-04T11:03:31.922Z,39.67
2023-03-04T11:08:42.583Z,45.25
2023-03-04T11:11:42.950Z,39.95
2023-03-04T11:14:34.679Z,42.83
2023-03-04T11:17:45.355Z,40.50
2023-03-04T11:20:48.278Z,45.17
2023-03-04T11:23:39.517Z,44.00
2023-03-04T11:26:19.522Z,43.80
2023-03-04T11:29:31.621Z,43.25
2023-03-04T11:32:21.325Z,44.25
2023-03-04T11:35:25.344Z,48.03
2023-03-04T11:38:37.723Z,46.00
2023-03-04T11:41:19.191Z,48.45
2023-03-04T11:43:47.720Z,46.60
2023-03-04T11:47:22.837Z,44.85
2023-03-04T11:50:29.397Z,39.05
2023-03-04T11:53:34.086Z,42.13
2023-03-04T11:56:35.258Z,41.92
2023-03-04T11:59:54.398Z,39.75
2023-03-04T12:02:46.974Z,35.25
2023-03-04T12:06:06.244Z,36.92
2023-03-04T12:09:21.726Z,37.28
2023-03-04T12:12:33.599Z,36.05
2023-03-04T12:15:51.418Z,38.63
2023-03-04T12:18:55.838Z,35.92
2023-03-04T12:22:23.316Z,36.95
2023-03-04T12:25:53.728Z,34.17
2023-03-04T12:29:43.116Z,33.22
2023-03-04T12:33:02.576Z,34.33
2023-03-04T12:35:58.795Z,33.38
2023-03-04T12:38:53.599Z,35.42
2023-03-04T12:42:23.243Z,39.67
2023-03-04T12:45:43.857Z,37.28
2023-03-04T12:48:50.242Z,35.20
2023-03-04T12:52:18.117Z,36.05
2023-03-04T12:54:58.184Z,34.08
2023-03-04T12:57:31.636Z,32.95
2023-03-04T13:00:13.300Z,34.78
2023-03-04T13:03:09.299Z,28.17
2023-03-04T13:06:13.889Z,32.70
2023-03-04T13:09:24.075Z,31.83
2023-03-04T13:12:24.677Z,34.42
2023-03-04T13:15:10.221Z,29.10
2023-03-04T13:18:01.546Z,29.77
2023-03-04T13:20:41.884Z,29.85
2023-03-04T13:23:14.964Z,29.60
2023-03-04T13:26:32.911Z,29.73
2023-03-04T13:29:18.592Z,32.60
2023-03-04T13:32:12.671Z,30.27
2023-03-04T13:34:57.934Z,31.55
2023-03-04T13:37:37.029Z,32.80
2023-03-04T13:40:23.433Z,29.42
2023-03-04T13:42:51.383Z,29.73
2023-03-04T13:45:37.389Z,31.88
2023-03-04T13:48:33.146Z,33.47
2023-03-04T13:51:00.731Z,32.58
2023-03-04T13:54:08.092Z,34.42
2023-03-04T13:56:40.668Z,31.42
2023-03-04T13:59:07.745Z,33.63
2023-03-04T14:01:43.041Z,34.80
2023-03-04T14:04:56.292Z,37.13
2023-03-04T14:07:36.770Z,34.65
2023-03-04T14:10:12.333Z,35.63
2023-03-04T14:12:58.856Z,36.05
2023-03-04T14:15:32.108Z,35.30
2023-03-04T14:18:04.730Z,35.00
2023-03-04T14:20:39.600Z,36.28
2023-03-04T14:23:42.527Z,36.42
2023-03-04T14:26:18.056Z,35.35
2023-03-04T14:28:52.684Z,37.85
2023-03-04T14:31:25.105Z,36.97
2023-03-04T14:33:59.848Z,37.33
2023-03-04T14:36:29.581Z,37.20
2023-03-04T14:39:03.260Z,32.47
2023-03-04T14:41:39.413Z,34.78
2023-03-04T14:44:40.508Z,32.10
2023-03-04T14:47:45.350Z,34.50
2023-03-04T14:50:20.178Z,35.60
2023-03-04T14:53:26.119Z,35.78
2023-03-04T14:56:10.575Z,33.17
2023-03-04T14:58:53.432Z,38.28
2023-03-04T15:01:32.414Z,34.15
2023-03-04T15:04:05.867Z,33.08
2023-03-04T15:06:39.222Z,32.10
2023-03-04T15:09:25.409Z,31.63
2023-03-04T15:12:08.299Z,34.78
2023-03-04T15:15:24.784Z,36.85
2023-03-04T15:18:22.990Z,32.85
2023-03-04T15:21:20.203Z,30.27
2023-03-04T15:23:47.964Z,29.70
2023-03-04T15:26:15.394Z,30.85
2023-03-04T15:28:43.410Z,31.45
2023-03-04T15:31:24.158Z,29.02
2023-03-04T15:33:52.533Z,29.48
2023-03-04T15:36:23.992Z,29.48
2023-03-04T15:38:53.569Z,29.63
2023-03-04T15:41:28.033Z,35.63
2023-03-04T15:43:55.578Z,31.17
2023-03-04T15:46:23.107Z,31.08
2023-03-04T15:48:50.818Z,33.28
2023-03-04T15:51:23.151Z,33.47
2023-03-04T15:53:57.600Z,30.80
2023-03-04T15:56:31.773Z,26.13
2023-03-04T15:59:16.579Z,31.08
2023-03-04T16:01:44.147Z,28.48
2023-03-04T16:04:17.647Z,27.58
2023-03-04T16:06:50.385Z,31.27
2023-03-04T16:09:21.079Z,31.98
2023-03-04T16:11:48.573Z,33.45
2023-03-04T16:14:17.084Z,30.42
2023-03-04T16:16:46.487Z,34.88
2023-03-04T16:19:13.801Z,29.33
2023-03-04T16:21:41.580Z,33.92
2023-03-04T16:24:19.933Z,29.85
2023-03-04T16:26:48.425Z,29.90
2023-03-04T16:29:16.854Z,31.42
2023-03-04T16:31:44.363Z,27.05
2023-03-04T16:34:11.999Z,32.42
2023-03-04T16:36:39.513Z,30.38
2023-03-04T16:39:22.763Z,29.33
2023-03-04T16:41:51.625Z,34.22
2023-03-04T16:44:19.144Z,37.95
2023-03-04T16:46:46.532Z,34.53
2023-03-04T16:49:13.859Z,38.53
2023-03-04T16:51:50.239Z,36.78
2023-03-04T16:54:31.814Z,40.78
2023-03-04T16:57:00.208Z,37.90
2023-03-04T16:59:29.235Z,37.83
2023-03-04T17:01:57.174Z,45.50
2023-03-04T17:04:24.863Z,45.03
2023-03-04T17:06:52.385Z,44.10
2023-03-04T17:09:19.745Z,42.92
2023-03-04T17:11:47.322Z,55.60
2023-03-04T17:14:14.637Z,49.78
2023-03-04T17:16:42.719Z,45.97
2023-03-04T17:19:10.026Z,50.47
2023-03-04T17:21:37.303Z,49.65
2023-03-04T17:24:04.856Z,51.55
2023-03-04T17:26:32.648Z,53.53
2023-03-04T17:28:59.974Z,50.50
2023-03-04T17:31:27.312Z,51.97
2023-03-04T17:33:54.611Z,48.63
2023-03-04T17:36:22.118Z,47.47
2023-03-04T17:38:51.928Z,52.20
2023-03-04T17:41:19.697Z,47.13
2023-03-04T17:43:51.766Z,50.95
2023-03-04T17:46:25.541Z,49.95
2023-03-04T17:48:57.378Z,50.85
2023-03-04T17:51:38.694Z,52.80
2023-03-04T17:54:08.622Z,47.55
2023-03-04T17:56:39.897Z,58.67
2023-03-04T17:59:13.776Z,53.55
2023-03-04T18:01:41.680Z,50.20
2023-03-04T18:04:09.076Z,50.70
2023-03-04T18:06:36.407Z,53.35
2023-03-04T18:09:05.636Z,55.90
2023-03-04T18:11:38.699Z,52.63
2023-03-04T18:14:06.521Z,52.72
2023-03-04T18:16:34.764Z,56.47
2023-03-04T18:19:02.938Z,51.40
2023-03-04T18:21:30.785Z,52.70
2023-03-04T18:23:58.640Z,55.78
2023-03-04T18:26:27.177Z,53.80
2023-03-04T18:28:56.850Z,55.10
2023-03-04T18:31:31.636Z,56.27
2023-03-04T18:34:02.624Z,53.55
2023-03-04T18:36:30.682Z,52.72
2023-03-04T18:38:59.536Z,55.08
2023-03-04T18:41:27.866Z,54.65
2023-03-04T18:43:55.696Z,56.38
2023-03-04T18:46:46.936Z,58.60
2023-03-04T18:49:15.582Z,55.63
2023-03-04T18:51:42.987Z,56.88
2023-03-04T18:54:10.514Z,61.15
2023-03-04T18:56:58.660Z,59.40
2023-03-04T19:00:02.471Z,59.58
2023-03-04T19:02:52.671Z,58.10
2023-03-04T19:05:30.019Z,62.42
2023-03-04T19:07:57.450Z,55.28
2023-03-04T19:10:25.813Z,59.75
2023-03-04T19:12:53.158Z,53.58
2023-03-04T19:15:20.526Z,54.67
2023-03-04T19:17:47.870Z,64.65
2023-03-04T19:20:16.240Z,60.25
2023-03-04T19:22:44.479Z,58.45
2023-03-04T19:25:12.605Z,61.03
2023-03-04T19:27:40.001Z,57.65
2023-03-04T19:30:10.128Z,62.22
2023-03-04T19:32:37.647Z,60.90
2023-03-04T19:35:05.617Z,63.55
2023-03-04T19:37:33.091Z,58.65
2023-03-04T19:40:00.362Z,61.58
2023-03-04T19:42:27.804Z,61.03
2023-03-04T19:44:55.369Z,60.95
2023-03-04T19:47:22.700Z,62.03
2023-03-04T19:49:49.991Z,65.05
2023-03-04T19:52:17.318Z,66.72
2023-03-04T19:54:44.595Z,59.78
2023-03-04T19:57:11.922Z,64.30
2023-03-04T19:59:39.266Z,60.95
2023-03-04T20:02:06.570Z,63.25
2023-03-04T20:04:34.040Z,62.42
2023-03-04T20:07:01.384Z,64.72
2023-03-04T20:09:28.695Z,64.55
2023-03-04T20:11:59.083Z,60.92
2023-03-04T20:14:33.467Z,65.82
2023-03-04T20:17:06.834Z,64.05
2023-03-04T20:19:35.250Z,59.42
2023-03-04T20:22:05.676Z,63.42
2023-03-04T20:24:33.139Z,58.70
2023-03-04T20:27:00.862Z,57.67
2023-03-04T20:29:28.946Z,70.03
2023-03-04T20:31:56.429Z,56.88
2023-03-04T20:34:25.444Z,62.53
2023-03-04T20:36:52.834Z,62.22
2023-03-04T20:39:29.237Z,65.55
2023-03-04T20:41:58.912Z,62.30
2023-03-04T20:44:27.044Z,63.35
2023-03-04T20:46:54.398Z,65.13
2023-03-04T20:49:28.668Z,66.30
2023-03-04T20:52:09.091Z,64.07
2023-03-04T20:54:39.042Z,60.95
2023-03-04T20:57:08.069Z,65.28
2023-03-04T20:59:38.977Z,67.28
2023-03-04T21:02:14.876Z,64.13
2023-03-04T21:04:43.882Z,63.63
2023-03-04T21:07:12.148Z,63.65
2023-03-04T21:09:39.463Z,62.28
2023-03-04T21:12:07.748Z,62.42
2023-03-04T21:14:35.106Z,63.17
2023-03-04T21:17:05.048Z,59.50
2023-03-04T21:19:43.488Z,58.88
2023-03-04T21:22:19.009Z,58.05
2023-03-04T21:24:47.920Z,61.38
2023-03-04T21:27:16.937Z,59.15
2023-03-04T21:29:44.703Z,61.75
2023-03-04T21:32:25.582Z,59.10
2023-03-04T21:34:55.198Z,56.88
2023-03-04T21:37:25.602Z,60.58
2023-03-04T21:42:22.519Z,59.63
2023-03-04T21:44:51.484Z,60.58
2023-03-04T21:47:22.214Z,58.75
2023-03-04T21:49:50.278Z,60.63
2023-03-04T21:52:22.614Z,64.20
2023-03-04T21:54:50.156Z,61.65
2023-03-04T21:57:19.206Z,56.72
2023-03-04T21:59:46.794Z,61.38
2023-03-04T22:02:23.949Z,58.70
2023-03-04T22:04:51.329Z,60.00
2023-03-04T22:07:18.707Z,57.58
2023-03-04T22:09:47.066Z,58.88
2023-03-04T22:12:15.840Z,59.35
2023-03-04T22:14:43.776Z,58.22
2023-03-04T22:17:11.149Z,54.53
